createdAt,value
2023-05-18T00:00:59.570Z,30.85
2023-05-18T00:03:05.101Z,31.11
2023-05-18T00:05:10.675Z,31.31
2023-05-18T00:07:16.012Z,31.25
2023-05-18T00:09:21.465Z,31.18
2023-05-18T00:11:26.998Z,31.19
2023-05-18T00:13:32.440Z,31.23
2023-05-18T00:15:37.678Z,31.2
2023-05-18T00:17:43.079Z,31.15
2023-05-18T00:19:48.548Z,31.06
2023-05-18T00:21:53.943Z,31.31
2023-05-18T00:23:59.228Z,31.22
2023-05-18T00:26:04.511Z,31.08
2023-05-18T00:28:09.825Z,31.15
2023-05-18T00:30:15.022Z,31.02
2023-05-18T00:32:20.458Z,31.07
2023-05-18T00:34:25.820Z,30.59
2023-05-18T00:36:31.157Z,30.95
2023-05-18T00:38:36.409Z,31.04
2023-05-18T00:40:41.625Z,30.84
2023-05-18T00:42:46.864Z,30.72
2023-05-18T00:44:52.120Z,30.81
2023-05-18T00:46:57.334Z,30.75
2023-05-18T00:49:02.578Z,30.83
2023-05-18T00:51:07.854Z,30.75
2023-05-18T00:53:13.258Z,30.65
2023-05-18T00:55:18.680Z,30.76
2023-05-18T00:58:13.484Z,30.75
2023-05-18T01:00:18.819Z,30.68
2023-05-18T01:02:24.398Z,30.7
2023-05-18T01:04:29.704Z,30.73
2023-05-18T01:06:35.246Z,30.8
2023-05-18T01:08:40.687Z,30.91
2023-05-18T01:10:45.953Z,30.88
2023-05-18T01:12:51.392Z,31.06
2023-05-18T01:14:57.263Z,31
2023-05-18T01:17:02.848Z,30.86
2023-05-18T01:19:08.304Z,30.83
2023-05-18T01:21:13.628Z,30.88
2023-05-18T01:23:18.820Z,31.04
2023-05-18T01:25:24.075Z,31.16
2023-05-18T01:27:29.533Z,31.12
2023-05-18T01:29:34.891Z,31.28
2023-05-18T01:31:40.225Z,31.23
2023-05-18T01:33:45.827Z,31.25
2023-05-18T01:35:51.672Z,31.08
2023-05-18T01:37:56.954Z,31.23
2023-05-18T01:40:02.451Z,31.23
2023-05-18T01:42:07.876Z,31.22
2023-05-18T01:44:13.166Z,31.09
2023-05-18T01:46:18.978Z,31.29
2023-05-18T01:48:24.305Z,31.13
2023-05-18T01:50:29.710Z,31.16
2023-05-18T01:52:35.135Z,31.3
2023-05-18T01:54:40.577Z,31.21
2023-05-18T01:56:45.823Z,31.05
2023-05-18T01:58:51.041Z,31.2
2023-05-18T02:00:56.360Z,31.27
2023-05-18T02:03:02.069Z,31.29
2023-05-18T02:05:07.392Z,31.2
2023-05-18T02:07:12.804Z,31.07
2023-05-18T02:09:18.249Z,31.16
2023-05-18T02:11:23.684Z,31.22
2023-05-18T02:13:29.077Z,31.3
2023-05-18T02:15:34.636Z,31.21
2023-05-18T02:17:40.044Z,31.1
2023-05-18T02:19:45.551Z,31.02
2023-05-18T02:21:50.991Z,31.05
2023-05-18T02:23:56.321Z,31.05
2023-05-18T02:26:01.763Z,31.39
2023-05-18T02:28:07.015Z,31.33
2023-05-18T02:30:16.021Z,31.23
2023-05-18T02:32:21.479Z,31.14
2023-05-18T02:34:26.904Z,31.08
2023-05-18T02:36:32.124Z,31.15
2023-05-18T02:38:37.582Z,31.09
2023-05-18T02:40:42.866Z,31.07
2023-05-18T02:42:48.187Z,31.28
2023-05-18T02:44:53.477Z,31.07
2023-05-18T02:46:58.830Z,31.12
2023-05-18T02:49:04.168Z,31.13
2023-05-18T02:51:09.563Z,31.11
2023-05-18T02:53:14.950Z,31.13
2023-05-18T02:55:20.370Z,31.12
2023-05-18T02:57:25.823Z,31.13
2023-05-18T02:59:31.166Z,31.17
2023-05-18T03:01:36.643Z,31.28
2023-05-18T03:03:42.079Z,31.2
2023-05-18T03:05:47.701Z,31.46
2023-05-18T03:07:52.977Z,31.48
2023-05-18T03:09:58.250Z,31.27
2023-05-18T03:12:03.702Z,31.42
2023-05-18T03:14:09.048Z,31.29
2023-05-18T03:16:14.401Z,31.29
2023-05-18T03:18:19.610Z,31.7
2023-05-18T03:20:24.846Z,31.63
2023-05-18T03:22:30.126Z,31.58
2023-05-18T03:24:35.341Z,31.67
2023-05-18T03:26:40.659Z,31.56
2023-05-18T03:28:45.998Z,31.61
2023-05-18T03:30:51.334Z,31.67
2023-05-18T03:32:56.906Z,31.63
2023-05-18T03:35:02.233Z,31.83
2023-05-18T03:37:07.503Z,31.75
2023-05-18T03:39:12.790Z,31.69
2023-05-18T03:41:18.129Z,31.78
2023-05-18T03:43:23.672Z,31.65
2023-05-18T03:45:29.329Z,31.63
2023-05-18T03:47:35.998Z,31.88
2023-05-18T03:49:41.311Z,31.64
2023-05-18T03:51:46.621Z,31.57
2023-05-18T03:53:51.882Z,31.7
2023-05-18T03:55:57.114Z,31.6
2023-05-18T03:58:02.366Z,31.64
2023-05-18T04:00:07.910Z,31.5
2023-05-18T04:02:13.287Z,31.75
2023-05-18T04:04:19.007Z,31.75
2023-05-18T04:06:24.424Z,32
2023-05-18T04:08:29.728Z,31.95
2023-05-18T04:10:35.038Z,31.98
2023-05-18T04:12:40.460Z,31.64
2023-05-18T04:14:45.990Z,31.95
2023-05-18T04:16:51.712Z,31.93
2023-05-18T04:18:57.144Z,31.96
2023-05-18T04:21:02.927Z,31.71
2023-05-18T04:23:09.347Z,31.83
2023-05-18T04:25:14.637Z,31.85
2023-05-18T04:27:20.168Z,31.88
2023-05-18T04:29:25.514Z,32.28
2023-05-18T04:31:30.977Z,31.85
2023-05-18T04:33:36.394Z,31.69
2023-05-18T04:35:41.831Z,31.94
2023-05-18T04:37:47.578Z,31.91
2023-05-18T04:39:53.012Z,31.68
2023-05-18T04:41:58.292Z,31.56
2023-05-18T04:44:03.788Z,31.79
2023-05-18T04:46:09.261Z,31.67
2023-05-18T04:48:14.879Z,31.73
2023-05-18T04:50:20.211Z,31.63
2023-05-18T04:52:25.452Z,31.61
2023-05-18T04:54:30.797Z,31.66
2023-05-18T04:56:36.540Z,31.56
2023-05-18T04:58:41.900Z,31.45
2023-05-18T05:00:47.104Z,31.73
2023-05-18T05:02:52.832Z,31.79
2023-05-18T05:04:58.191Z,32.13
2023-05-18T05:07:03.498Z,32.28
2023-05-18T05:09:08.978Z,32.48
2023-05-18T05:11:14.323Z,32.59
2023-05-18T05:13:19.961Z,32.65
2023-05-18T05:15:25.489Z,32.63
2023-05-18T05:17:30.972Z,32.96
2023-05-18T05:19:36.701Z,32.99
2023-05-18T05:21:41.979Z,33.35
2023-05-18T05:23:47.560Z,33.32
2023-05-18T05:25:52.906Z,33.37
2023-05-18T05:27:58.557Z,33.39
2023-05-18T05:30:04.004Z,33.5
2023-05-18T05:32:09.511Z,33.49
2023-05-18T05:34:14.992Z,33.58
2023-05-18T05:36:20.195Z,33.51
2023-05-18T05:38:25.782Z,33.65
2023-05-18T05:40:31.190Z,34.4
2023-05-18T05:42:36.389Z,34.91
2023-05-18T05:44:42.592Z,35.13
2023-05-18T05:46:48.146Z,35.17
2023-05-18T05:48:53.657Z,35.54
2023-05-18T05:50:59.000Z,35.32
2023-05-18T05:53:04.338Z,35.18
2023-05-18T05:55:09.525Z,35.1
2023-05-18T05:57:15.015Z,35.02
2023-05-18T05:59:20.531Z,34.91
2023-05-18T06:01:25.823Z,35.16
2023-05-18T06:03:32.447Z,35.15
2023-05-18T06:05:38.902Z,35.16
2023-05-18T06:07:44.272Z,35.21
2023-05-18T06:09:49.595Z,35.14
2023-05-18T06:11:54.830Z,35.16
2023-05-18T06:14:00.194Z,35.25
2023-05-18T06:16:05.501Z,35.11
2023-05-18T06:18:13.632Z,35.4
2023-05-18T06:20:19.223Z,35.34
2023-05-18T06:22:24.710Z,35.31
2023-05-18T06:24:29.938Z,35.22
2023-05-18T06:26:35.202Z,35.5
2023-05-18T06:28:40.514Z,35.14
2023-05-18T06:30:45.846Z,36.04
2023-05-18T06:32:51.235Z,35.78
2023-05-18T06:34:56.721Z,36.03
2023-05-18T06:37:02.010Z,36.12
2023-05-18T06:39:07.313Z,35.87
2023-05-18T06:41:12.939Z,36.17
2023-05-18T06:43:18.053Z,36.14
2023-05-18T06:45:23.210Z,35.78
2023-05-18T06:47:28.452Z,35.92
2023-05-18T06:49:33.591Z,35.88
2023-05-18T06:51:39.026Z,35.68
2023-05-18T06:53:44.114Z,35.6
2023-05-18T06:55:49.248Z,35.56
2023-05-18T06:57:54.626Z,35.44
2023-05-18T06:59:59.965Z,35.42
2023-05-18T07:02:05.623Z,35.3
2023-05-18T07:04:11.271Z,35.34
2023-05-18T07:06:16.566Z,35.22
2023-05-18T07:08:22.252Z,35.4
2023-05-18T07:10:27.600Z,35.36
2023-05-18T07:12:33.009Z,35.28
2023-05-18T07:14:38.224Z,35.23
2023-05-18T07:16:43.554Z,35.31
2023-05-18T07:18:48.900Z,35.25
2023-05-18T07:20:54.157Z,35.16
2023-05-18T07:22:59.595Z,35.17
2023-05-18T07:25:05.044Z,35.14
2023-05-18T07:27:10.297Z,35.12
2023-05-18T07:29:15.832Z,35.1
2023-05-18T07:31:21.923Z,35
2023-05-18T07:33:27.219Z,34.99
2023-05-18T07:35:33.306Z,35
2023-05-18T07:37:38.903Z,34.95
2023-05-18T07:39:44.462Z,34.97
2023-05-18T07:41:49.768Z,34.91
2023-05-18T07:43:55.300Z,34.88
2023-05-18T07:46:00.579Z,34.79
2023-05-18T07:48:06.008Z,34.83
2023-05-18T07:50:11.294Z,34.79
2023-05-18T07:52:16.475Z,34.7
2023-05-18T07:54:21.772Z,34.69
2023-05-18T07:56:27.096Z,34.89
2023-05-18T07:58:32.455Z,34.79
2023-05-18T08:00:38.031Z,34.7
2023-05-18T08:02:44.025Z,34.61
2023-05-18T08:04:49.474Z,34.45
2023-05-18T08:06:55.064Z,34.58
2023-05-18T08:09:00.632Z,34.6
2023-05-18T08:11:05.947Z,34.55
2023-05-18T08:13:11.223Z,34.54
2023-05-18T08:15:16.508Z,34.52
2023-05-18T08:17:21.749Z,34.43
2023-05-18T08:19:27.127Z,34.47
2023-05-18T08:21:32.527Z,34.31
2023-05-18T08:23:38.222Z,34.29
2023-05-18T08:25:43.849Z,34.26
2023-05-18T08:27:49.045Z,34.33
2023-05-18T08:29:54.373Z,34.37
2023-05-18T08:31:59.963Z,34.3
2023-05-18T08:34:05.329Z,34.27
2023-05-18T08:36:10.615Z,34.2
2023-05-18T08:38:15.857Z,34.07
2023-05-18T08:40:21.295Z,34.11
2023-05-18T08:42:50.226Z,34.1
2023-05-18T08:44:56.024Z,32.96
2023-05-18T08:47:01.567Z,28.71
2023-05-18T08:49:07.082Z,27.38
2023-05-18T08:51:12.349Z,26.94
2023-05-18T08:53:17.630Z,27.05
2023-05-18T08:55:22.984Z,27.16
2023-05-18T08:57:28.453Z,27.04
2023-05-18T08:59:33.657Z,26.87
2023-05-18T09:01:39.166Z,26.99
2023-05-18T09:03:44.779Z,27.41
2023-05-18T09:05:50.080Z,27.74
2023-05-18T09:07:55.368Z,27.87
2023-05-18T09:10:00.594Z,27.88
2023-05-18T09:12:06.239Z,27.95
2023-05-18T09:14:11.673Z,27.7
2023-05-18T09:16:17.150Z,27.89
2023-05-18T09:18:29.526Z,28.04
2023-05-18T09:20:34.867Z,28.04
2023-05-18T09:22:40.328Z,28.13
2023-05-18T09:24:45.930Z,28.31
2023-05-18T09:26:51.135Z,28.35
2023-05-18T09:28:56.468Z,28.42
2023-05-18T09:31:01.712Z,28.5
2023-05-18T09:33:07.386Z,28.68
2023-05-18T09:35:12.926Z,28.62
2023-05-18T09:37:18.272Z,28.74
2023-05-18T09:39:23.545Z,28.89
2023-05-18T09:41:28.842Z,28.96
2023-05-18T09:43:34.137Z,28.82
2023-05-18T09:45:39.638Z,28.77
2023-05-18T09:47:45.092Z,28.7
2023-05-18T09:49:50.302Z,28.62
2023-05-18T09:51:55.839Z,28.61
2023-05-18T09:54:01.028Z,28.58
2023-05-18T09:56:06.298Z,28.53
2023-05-18T09:58:11.551Z,28.51
2023-05-18T10:00:16.831Z,28.49
2023-05-18T10:02:22.086Z,28.5
2023-05-18T10:04:27.417Z,28.52
2023-05-18T10:06:32.898Z,28.48
2023-05-18T10:08:38.328Z,28.36
2023-05-18T10:10:43.775Z,28.34
2023-05-18T10:12:49.109Z,28.19
2023-05-18T10:14:54.548Z,28.27
2023-05-18T10:17:17.837Z,28.16
2023-05-18T10:19:23.597Z,28.14
2023-05-18T10:21:29.101Z,28.22
2023-05-18T10:23:34.566Z,28.19
2023-05-18T10:25:39.965Z,28.29
2023-05-18T10:27:45.414Z,28.28
2023-05-18T10:29:50.708Z,28.44
2023-05-18T10:31:57.118Z,28.27
2023-05-18T10:34:02.351Z,28.17
2023-05-18T10:36:07.698Z,28.07
2023-05-18T10:38:12.928Z,27.87
2023-05-18T10:40:18.341Z,27.82
2023-05-18T10:42:23.595Z,27.71
2023-05-18T10:44:28.941Z,27.67
2023-05-18T10:46:34.686Z,27.47
2023-05-18T10:48:40.515Z,27.4
2023-05-18T10:50:46.075Z,27.27
2023-05-18T10:52:51.305Z,27.25
2023-05-18T10:54:56.659Z,27.15
2023-05-18T10:57:01.892Z,27.1
2023-05-18T10:59:07.232Z,26.97
2023-05-18T11:01:12.788Z,26.88
2023-05-18T11:03:18.357Z,26.88
2023-05-18T11:05:23.832Z,26.75
2023-05-18T11:07:29.200Z,26.73
2023-05-18T11:09:34.446Z,26.64
2023-05-18T11:11:39.762Z,26.45
2023-05-18T11:13:45.000Z,26.41
2023-05-18T11:15:50.392Z,26.34
2023-05-18T11:17:55.985Z,26.17
2023-05-18T11:20:01.320Z,26.1
2023-05-18T11:22:06.657Z,25.96
2023-05-18T11:24:11.893Z,25.97
2023-05-18T11:26:17.123Z,25.97
2023-05-18T11:28:22.669Z,25.98
2023-05-18T11:30:28.209Z,26.08
2023-05-18T11:32:34.395Z,26.16
2023-05-18T11:34:42.160Z,26.25
2023-05-18T11:36:47.572Z,26.3
2023-05-18T11:38:52.973Z,26.49
2023-05-18T11:40:58.283Z,26.88
2023-05-18T11:43:03.574Z,26.48
2023-05-18T11:45:08.910Z,26.74
2023-05-18T11:47:14.213Z,26.6
2023-05-18T11:49:19.566Z,26.7
2023-05-18T11:51:24.961Z,26.63
2023-05-18T11:53:30.284Z,26.94
2023-05-18T11:55:35.740Z,27.33
2023-05-18T11:57:41.038Z,27.23
2023-05-18T11:59:46.627Z,26.64
2023-05-18T12:01:52.088Z,26
2023-05-18T12:03:57.409Z,25.83
2023-05-18T12:06:02.736Z,29.26
2023-05-18T12:08:08.198Z,28.25
2023-05-18T12:10:13.921Z,27.48
2023-05-18T12:12:19.158Z,26.74
2023-05-18T12:14:24.712Z,26.57
2023-05-18T12:16:30.068Z,26.54
2023-05-18T12:18:35.436Z,26.84
2023-05-18T12:20:40.834Z,26.9
2023-05-18T12:22:46.209Z,26.4
2023-05-18T12:24:51.705Z,26.09
2023-05-18T12:26:56.972Z,26.56
2023-05-18T12:29:02.394Z,26.76
2023-05-18T12:31:08.115Z,27.07
2023-05-18T12:33:13.733Z,27.51
2023-05-18T12:35:18.995Z,27.29
2023-05-18T12:39:49.861Z,25.61
2023-05-18T12:41:55.192Z,25.53
2023-05-18T12:44:00.534Z,25.76
2023-05-18T12:46:05.942Z,26.44
2023-05-18T12:48:11.352Z,25.6
2023-05-18T12:50:16.717Z,25.75
2023-05-18T12:52:22.194Z,25.44
2023-05-18T12:54:27.631Z,25.71
2023-05-18T12:56:32.877Z,25.43
2023-05-18T12:58:38.111Z,25.52
2023-05-18T13:00:43.553Z,25.39
2023-05-18T13:02:49.238Z,25.44
2023-05-18T13:04:54.590Z,25.14
2023-05-18T13:07:00.080Z,25.71
2023-05-18T13:09:05.406Z,26.18
2023-05-18T13:11:17.321Z,25.72
2023-05-18T13:13:22.710Z,26.01
2023-05-18T13:15:28.004Z,26.01
2023-05-18T13:17:33.607Z,26.91
2023-05-18T13:19:39.164Z,26.06
2023-05-18T13:21:44.572Z,25.47
2023-05-18T13:23:49.939Z,25.46
2023-05-18T13:25:59.047Z,25.8
2023-05-18T13:28:04.474Z,25.35
2023-05-18T13:30:09.853Z,25.87
2023-05-18T13:32:15.224Z,25.47
2023-05-18T13:34:20.565Z,26.13
2023-05-18T13:36:25.866Z,26.37
2023-05-18T13:38:31.781Z,25.72
2023-05-18T13:40:37.151Z,26.54
2023-05-18T13:42:42.433Z,25.74
2023-05-18T13:44:47.730Z,25.87
2023-05-18T13:46:52.980Z,25.73
2023-05-18T13:48:58.312Z,25.51
2023-05-18T13:51:03.713Z,25.03
2023-05-18T13:53:09.454Z,25.62
2023-05-18T13:55:15.101Z,26.22
2023-05-18T13:57:20.498Z,26.63
2023-05-18T13:59:25.675Z,26.24
2023-05-18T14:01:31.099Z,25.88
2023-05-18T14:03:37.103Z,25.5
2023-05-18T14:05:42.546Z,25.75
2023-05-18T14:07:47.982Z,25.41
2023-05-18T14:09:53.293Z,25.29
2023-05-18T14:11:58.623Z,25.45
2023-05-18T14:14:04.209Z,25.47
2023-05-18T14:16:09.762Z,25.47
2023-05-18T14:18:15.143Z,25.68
2023-05-18T14:20:20.704Z,26.24
2023-05-18T14:22:26.290Z,26.43
2023-05-18T14:24:32.066Z,26.69
2023-05-18T14:26:37.558Z,26.68
2023-05-18T14:28:42.911Z,26.82
2023-05-18T14:30:48.451Z,26.66
2023-05-18T14:32:53.846Z,26.83
2023-05-18T14:34:59.581Z,26.91
2023-05-18T14:37:04.870Z,27.01
2023-05-18T14:39:10.299Z,26.78
2023-05-18T14:41:15.626Z,26.82
2023-05-18T14:43:20.978Z,27.15
2023-05-18T14:45:26.317Z,27.08
2023-05-18T14:47:31.753Z,27.08
2023-05-18T14:49:37.211Z,27.08
2023-05-18T14:51:42.607Z,27.17
2023-05-18T14:53:47.884Z,27.18
2023-05-18T14:55:53.411Z,27.11
2023-05-18T14:57:58.798Z,26.88
2023-05-18T15:00:04.407Z,27.15
2023-05-18T15:02:09.857Z,27.17
2023-05-18T15:04:15.455Z,27
2023-05-18T15:06:20.943Z,27.24
2023-05-18T15:08:26.273Z,27.28
2023-05-18T15:10:32.403Z,27.13
2023-05-18T15:12:37.804Z,27.44
2023-05-18T15:14:43.290Z,27.44
2023-05-18T15:16:49.131Z,27.54
2023-05-18T15:18:54.611Z,27.51
2023-05-18T15:20:59.981Z,27.71
2023-05-18T15:23:05.373Z,27.55
2023-05-18T15:25:10.709Z,27.63
2023-05-18T15:27:16.046Z,27.77
2023-05-18T15:29:21.501Z,27.78
2023-05-18T15:31:28.088Z,27.7
2023-05-18T15:33:33.593Z,27.78
2023-05-18T15:35:38.954Z,27.73
2023-05-18T15:37:44.477Z,27.84
2023-05-18T15:39:49.853Z,28.1
2023-05-18T15:41:55.073Z,27.66
2023-05-18T15:44:00.499Z,27.91
2023-05-18T15:46:06.375Z,27.69
2023-05-18T15:48:11.896Z,27.77
2023-05-18T15:50:17.269Z,26.72
2023-05-18T15:52:22.661Z,26.46
2023-05-18T15:54:28.108Z,26.33
2023-05-18T15:56:33.567Z,26.11
2023-05-18T15:58:38.879Z,26.11
2023-05-18T16:00:44.143Z,25.96
2023-05-18T16:02:49.588Z,26.34
2023-05-18T16:04:54.836Z,26.5
2023-05-18T16:06:59.953Z,26.33
2023-05-18T16:09:05.231Z,26.12
2023-05-18T16:11:10.422Z,26.19
2023-05-18T16:13:15.611Z,26.28
2023-05-18T16:15:20.856Z,26.24
2023-05-18T16:17:26.465Z,26.04
2023-05-18T16:19:32.120Z,26.15
2023-05-18T16:21:37.325Z,26.09
2023-05-18T16:23:42.829Z,26.27
2023-05-18T16:25:49.189Z,26.15
2023-05-18T16:27:54.360Z,26.33
2023-05-18T16:29:59.642Z,26.98
2023-05-18T16:32:04.861Z,27.22
2023-05-18T16:34:10.093Z,27.23
2023-05-18T16:36:15.476Z,27.29
2023-05-18T16:38:20.948Z,27.28
2023-05-18T16:40:26.216Z,27.28
2023-05-18T16:42:31.814Z,27.36
2023-05-18T16:44:37.211Z,27.19
2023-05-18T16:46:42.604Z,27.29
2023-05-18T16:48:47.943Z,27.17
2023-05-18T16:50:53.208Z,27.18
2023-05-18T16:52:58.876Z,27.13
2023-05-18T16:55:04.264Z,27.18
2023-05-18T16:57:09.691Z,27.15
2023-05-18T16:59:15.249Z,27.08
2023-05-18T17:01:30.894Z,26.92
2023-05-18T17:03:36.541Z,27.1
2023-05-18T17:05:42.002Z,27.12
2023-05-18T17:07:47.351Z,27.16
2023-05-18T17:09:52.578Z,27.3
2023-05-18T17:11:58.126Z,27.83
2023-05-18T17:14:03.774Z,28.05
2023-05-18T17:16:09.264Z,28.09
2023-05-18T17:18:14.778Z,28.08
2023-05-18T17:20:20.212Z,28.13
2023-05-18T17:22:25.583Z,28.04
2023-05-18T17:24:31.000Z,28.17
2023-05-18T17:26:36.416Z,28.07
2023-05-18T17:28:41.849Z,28.13
2023-05-18T17:30:47.393Z,28.43
2023-05-18T17:32:52.928Z,28.67
2023-05-18T17:34:58.362Z,28.82
2023-05-18T17:37:03.962Z,28.82
2023-05-18T17:39:09.472Z,28.89
2023-05-18T17:41:14.921Z,29.05
2023-05-18T17:43:20.440Z,28.99
2023-05-18T17:45:25.681Z,28.95
2023-05-18T17:47:31.178Z,28.95
2023-05-18T17:49:36.468Z,28.94
2023-05-18T17:51:41.797Z,29.15
2023-05-18T17:53:47.337Z,29.25
2023-05-18T17:55:52.677Z,29.32
2023-05-18T17:57:58.005Z,29.22
2023-05-18T18:00:03.295Z,29.25
2023-05-18T18:02:08.526Z,29.36
2023-05-18T18:04:13.896Z,29.4
2023-05-18T18:06:19.261Z,29.38
2023-05-18T18:08:24.664Z,29.3
2023-05-18T18:10:30.326Z,29.28
2023-05-18T18:12:35.906Z,29.23
2023-05-18T18:14:41.331Z,29.24
2023-05-18T18:16:46.958Z,29.24
2023-05-18T18:18:52.445Z,29.23
2023-05-18T18:20:58.066Z,29.57
2023-05-18T18:23:03.359Z,29.72
2023-05-18T18:25:09.963Z,30.06
2023-05-18T18:27:15.199Z,30.13
2023-05-18T18:29:20.549Z,30.05
2023-05-18T18:31:26.127Z,30.18
2023-05-18T18:33:31.527Z,30.12
2023-05-18T18:35:36.755Z,30.15
2023-05-18T18:37:42.087Z,30.15
2023-05-18T18:39:47.390Z,30.2
2023-05-18T18:41:52.680Z,30.31
2023-05-18T18:43:58.022Z,30.22
2023-05-18T18:46:03.576Z,30.15
2023-05-18T18:48:09.144Z,30.19
2023-05-18T18:50:14.457Z,30.24
2023-05-18T18:52:20.021Z,30.17
2023-05-18T18:54:25.321Z,30.29
2023-05-18T18:56:30.810Z,30.17
2023-05-18T18:58:36.185Z,30.49
2023-05-18T19:00:41.423Z,30.72
2023-05-18T19:02:46.890Z,30.79
2023-05-18T19:04:52.264Z,30.68
2023-05-18T19:06:57.747Z,31.18
2023-05-18T19:09:03.184Z,31.52
2023-05-18T19:11:08.633Z,31.75
2023-05-18T19:13:13.905Z,31.01
2023-05-18T19:15:19.090Z,31.36
2023-05-18T19:17:24.507Z,31.18
2023-05-18T19:19:30.187Z,31.05
2023-05-18T19:21:35.971Z,31.16
2023-05-18T19:23:41.482Z,31.2
2023-05-18T19:25:46.806Z,31.28
2023-05-18T19:27:52.056Z,31.81
2023-05-18T19:29:57.271Z,31.44
2023-05-18T19:32:02.800Z,31.43
2023-05-18T19:34:08.373Z,31.07
2023-05-18T19:36:13.805Z,31.64
2023-05-18T19:38:19.153Z,32.78
2023-05-18T19:40:24.487Z,31.66
2023-05-18T19:42:29.739Z,31.54
2023-05-18T19:44:35.167Z,32
2023-05-18T19:46:40.503Z,31.89
2023-05-18T19:48:45.778Z,31.53
2023-05-18T19:50:51.162Z,31.27
2023-05-18T19:52:56.606Z,31.17
2023-05-18T19:55:02.535Z,30.88
2023-05-18T19:57:08.208Z,31.45
2023-05-18T19:59:13.643Z,31.31
2023-05-18T20:01:19.213Z,31.02
2023-05-18T20:03:24.728Z,30.94
2023-05-18T20:05:30.146Z,31.35
2023-05-18T20:07:35.605Z,31.18
2023-05-18T20:09:41.011Z,31.31
2023-05-18T20:11:46.502Z,31.14
2023-05-18T20:13:51.929Z,31.39
2023-05-18T20:15:57.219Z,31.18
2023-05-18T20:18:03.973Z,31.31
2023-05-18T20:20:10.714Z,30.73
2023-05-18T20:22:16.147Z,31.03
2023-05-18T20:24:21.695Z,30.91
2023-05-18T20:26:27.030Z,30.67
2023-05-18T20:28:32.772Z,30.74
2023-05-18T20:30:38.123Z,30.73
2023-05-18T20:32:43.503Z,30.97
2023-05-18T20:34:48.868Z,30.93
2023-05-18T20:36:54.218Z,30.9
2023-05-18T20:38:59.513Z,30.78
2023-05-18T20:41:04.749Z,30.72
2023-05-18T20:43:10.255Z,30.72
2023-05-18T20:45:15.855Z,30.62
2023-05-18T20:47:21.365Z,30.97
2023-05-18T20:49:26.707Z,30.91
2023-05-18T20:51:32.005Z,30.6
2023-05-18T20:53:37.561Z,30.76
2023-05-18T20:55:42.810Z,30.85
2023-05-18T20:57:48.123Z,30.91
2023-05-18T20:59:53.409Z,31.42
2023-05-18T21:01:59.092Z,31.34
2023-05-18T21:04:04.819Z,31.03
2023-05-18T21:06:10.295Z,31.28
2023-05-18T21:08:15.864Z,31.02
2023-05-18T21:10:21.171Z,31.1
2023-05-18T21:12:26.570Z,30.89
2023-05-18T21:14:31.918Z,30.84
2023-05-18T21:16:37.814Z,30.95
2023-05-18T21:18:43.273Z,31.07
2023-05-18T21:20:48.655Z,31.07
2023-05-18T21:22:54.021Z,31.34
2023-05-18T21:24:59.463Z,31.22
2023-05-18T21:27:04.743Z,31.22
2023-05-18T21:29:10.160Z,31.24
2023-05-18T21:31:15.770Z,31.4
2023-05-18T21:33:21.285Z,31.52
2023-05-18T21:35:26.668Z,31.51
2023-05-18T21:37:32.016Z,31.39
2023-05-18T21:39:37.341Z,31.32
2023-05-18T21:41:42.798Z,31.17
2023-05-18T21:43:48.323Z,31.31
2023-05-18T21:45:53.754Z,31.52
2023-05-18T21:47:59.218Z,31.43
2023-05-18T21:50:04.752Z,31.51
2023-05-18T21:52:10.142Z,31.13
2023-05-18T21:54:15.424Z,30.92
2023-05-18T21:56:20.663Z,31
2023-05-18T21:58:25.974Z,31.03
2023-05-18T22:00:31.888Z,31.1
2023-05-18T22:02:37.342Z,31.34
2023-05-18T22:04:42.863Z,31.1
2023-05-18T22:06:48.372Z,31.24
2023-05-18T22:08:53.724Z,31.34
2023-05-18T22:10:59.006Z,31.56
2023-05-18T22:13:04.292Z,31.23
2023-05-18T22:15:09.639Z,31.34
2023-05-18T22:17:15.150Z,31.42
2023-05-18T22:19:20.948Z,31.11
2023-05-18T22:21:26.354Z,31.23
2023-05-18T22:23:31.599Z,31.03
2023-05-18T22:25:37.016Z,31.21
2023-05-18T22:27:42.549Z,31.38
2023-05-18T22:29:47.832Z,30.95
2023-05-18T22:31:53.477Z,31.15
2023-05-18T22:33:58.893Z,31.22
2023-05-18T22:36:04.304Z,31.23
2023-05-18T22:38:09.589Z,31.24
2023-05-18T22:40:15.004Z,31.08
2023-05-18T22:42:20.453Z,31.28
2023-05-18T22:44:26.126Z,31.34
2023-05-18T22:46:32.258Z,31.2
2023-05-18T22:48:38.086Z,31.17
2023-05-18T22:50:44.014Z,31.22
2023-05-18T22:52:50.035Z,31.22
2023-05-18T22:54:55.710Z,31.11
2023-05-18T22:57:02.520Z,31.08
2023-05-18T22:59:08.097Z,31.51
2023-05-18T23:01:14.430Z,31.35
2023-05-18T23:03:20.880Z,31.45
2023-05-18T23:05:26.756Z,31.51
2023-05-18T23:07:34.092Z,31.39
2023-05-18T23:09:39.824Z,31.42
2023-05-18T23:11:45.538Z,31.05
2023-05-18T23:13:53.278Z,31.32
2023-05-18T23:15:59.065Z,31.42
2023-05-18T23:18:06.496Z,31.31
2023-05-18T23:20:12.107Z,31.32
2023-05-18T23:22:18.404Z,31.21
2023-05-18T23:24:24.202Z,31.14
2023-05-18T23:26:29.752Z,31.37
2023-05-18T23:28:35.853Z,31.3
2023-05-18T23:30:41.358Z,31.43
2023-05-18T23:32:47.132Z,31.33
2023-05-18T23:34:53.001Z,31.37
2023-05-18T23:36:58.465Z,31.18
2023-05-18T23:39:05.242Z,31.37
2023-05-18T23:41:11.139Z,31.47
2023-05-18T23:43:16.529Z,31.65
2023-05-18T23:45:22.398Z,31.43
2023-05-18T23:47:28.195Z,31.57
2023-05-18T23:49:35.280Z,31.52
2023-05-18T23:51:41.787Z,31.22
2023-05-18T23:53:47.433Z,31.54
2023-05-18T23:55:52.878Z,31.45
2023-05-18T23:57:58.691Z,31.45
